Time,TemperatureF,DewpointF,PressureIn,WindDirection,WindDirectionDegrees,WindSpeedMPH,WindSpeedGustMPH,Humidity,HourlyPrecipIn,Conditions,Clouds,dailyrainin,SolarRadiationWatts/m^2,SoftwareType,DateUTC
2013-12-23 00:05:00,47.7,41.2,30.32,NNW,348,6.0,6.0,78,0.00,,,0.00,0,Wunderground v.1.15,2013-12-23 08:05:00,
2013-12-23 00:14:00,47.1,40.3,30.32,North,351,6.0,7.0,77,0.00,,,0.00,0,Wunderground v.1.15,2013-12-23 08:14:00,
2013-12-23 00:20:00,47.0,40.2,30.32,North,351,5.0,6.0,77,0.00,,,0.00,0,Wunderground v.1.15,2013-12-23 08:20:00,
2013-12-23 00:25:00,47.0,40.5,30.33,North,352,5.0,6.0,78,0.00,,,0.00,0,Wunderground v.1.15,2013-12-23 08:25:00,
2013-12-23 00:34:00,47.1,40.9,30.33,North,355,7.0,7.0,79,0.00,,,0.00,0,Wunderground v.1.15,2013-12-23 08:34:00,
2013-12-23 00:40:00,47.1,40.9,30.33,North,359,6.0,7.0,79,0.00,,,0.00,0,Wunderground v.1.15,2013-12-23 08:40:00,
2013-12-23 00:45:00,47.1,41.2,30.32,North,4,6.0,7.0,80,0.00,,,0.00,0,Wunderground v.1.15,2013-12-23 08:45:00,
2013-12-23 00:54:00,47.0,41.1,30.33,North,359,6.0,9.0,80,0.00,,,0.00,0,Wunderground v.1.15,2013-12-23 08:54:00,
2013-12-23 01:00:00,47.0,41.1,30.33,North,357,6.0,6.0,80,0.00,,,0.00,0,Wunderground v.1.15,2013-12-23 09:00:00,
2013-12-23 01:09:00,46.9,41.1,30.33,North,357,5.0,7.0,80,0.00,,,0.00,0,Wunderground v.1.15,2013-12-23 09:09:00,
2013-12-23 01:14:00,47.0,41.1,30.33,North,358,6.0,8.0,80,0.00,,,0.00,0,Wunderground v.1.15,2013-12-23 09:14:00,
2013-12-23 01:20:00,47.1,40.9,30.33,North,359,7.0,7.0,79,0.00,,,0.00,0,Wunderground v.1.15,2013-12-23 09:20:00,
2013-12-23 01:29:00,47.4,41.2,30.34,North,1,7.0,7.0,79,0.00,,,0.00,0,Wunderground v.1.15,2013-12-23 09:29:00,
2013-12-23 01:35:00,47.3,41.4,30.34,North,2,6.0,7.0,80,0.00,,,0.00,0,Wunderground v.1.15,2013-12-23 09:35:00,
2013-12-23 01:40:00,47.2,41.3,30.34,North,3,3.0,3.0,80,0.00,,,0.00,0,Wunderground v.1.15,2013-12-23 09:40:00,
2013-12-23 01:50:00,46.6,40.4,30.35,North,1,2.0,4.0,79,0.00,,,0.00,0,Wunderground v.1.15,2013-12-23 09:50:00,
2013-12-23 01:55:00,46.2,40.4,30.35,North,3,3.0,6.0,80,0.00,,,0.00,0,Wunderground v.1.15,2013-12-23 09:55:00,
2013-12-23 02:04:00,45.9,40.1,30.35,North,1,4.0,4.0,80,0.00,,,0.00,0,Wunderground v.1.15,2013-12-23 10:04:00,
2013-12-23 02:10:00,45.7,39.9,30.35,North,1,4.0,4.0,80,0.00,,,0.00,0,Wunderground v.1.15,2013-12-23 10:10:00,
2013-12-23 02:15:00,45.6,40.1,30.36,North,1,3.0,4.0,81,0.00,,,0.00,0,Wunderground v.1.15,2013-12-23 10:15:00,
2013-12-23 02:25:00,45.6,40.4,30.36,NNE,13,4.0,4.0,82,0.00,,,0.00,0,Wunderground v.1.15,2013-12-23 10:25:00,
2013-12-23 02:34:00,45.6,40.7,30.36,NNE,13,3.0,4.0,83,0.00,,,0.00,0,Wunderground v.1.15,2013-12-23 10:34:00,
2013-12-23 02:40:00,45.3,40.1,30.36,NNE,14,3.0,3.0,82,0.00,,,0.00,0,Wunderground v.1.15,2013-12-23 10:40:00,
2013-12-23 02:45:00,45.1,39.9,30.36,NNE,14,3.0,3.0,82,0.00,,,0.00,0,Wunderground v.1.15,2013-12-23 10:45:00,
2013-12-23 02:55:00,44.8,39.6,30.36,NNE,13,3.0,3.0,82,0.00,,,0.00,0,Wunderground v.1.15,2013-12-23 10:55:00,
2013-12-23 03:00:00,44.6,39.4,30.36,NNE,13,3.0,3.0,82,0.00,,,0.00,0,Wunderground v.1.15,2013-12-23 11:00:00,
2013-12-23 03:09:00,44.4,39.6,30.36,NNE,12,0.0,0.0,83,0.00,,,0.00,0,Wunderground v.1.15,2013-12-23 11:09:00,
2013-12-23 03:15:00,44.2,39.4,30.37,NNE,14,1.0,1.0,83,0.00,,,0.00,0,Wunderground v.1.15,2013-12-23 11:15:00,
2013-12-23 03:20:00,44.2,39.4,30.37,NNE,14,2.0,2.0,83,0.00,,,0.00,0,Wunderground v.1.15,2013-12-23 11:20:00,
2013-12-23 03:30:00,44.2,39.7,30.36,NNE,14,3.0,5.0,84,0.00,,,0.00,0,Wunderground v.1.15,2013-12-23 11:30:00,
2013-12-23 03:35:00,44.1,39.6,30.36,NNE,12,4.0,5.0,84,0.00,,,0.00,0,Wunderground v.1.15,2013-12-23 11:35:00,
2013-12-23 03:45:00,44.0,39.8,30.37,NNE,12,4.0,5.0,85,0.00,,,0.00,0,Wunderground v.1.15,2013-12-23 11:45:00,
2013-12-23 03:50:00,43.9,39.7,30.37,NNE,14,4.0,5.0,85,0.00,,,0.00,0,Wunderground v.1.15,2013-12-23 11:50:00,
2013-12-23 03:59:00,44.1,40.2,30.37,NNE,14,4.0,4.0,86,0.00,,,0.00,0,Wunderground v.1.15,2013-12-23 11:59:00,
2013-12-23 04:05:00,44.0,40.1,30.37,NNE,13,3.0,4.0,86,0.00,,,0.00,0,Wunderground v.1.15,2013-12-23 12:05:00,
2013-12-23 04:14:00,43.9,40.0,30.37,NNE,13,3.0,4.0,86,0.00,,,0.00,0,Wunderground v.1.15,2013-12-23 12:14:00,
2013-12-23 04:20:00,44.0,40.4,30.36,NNE,14,3.0,3.0,87,0.00,,,0.00,0,Wunderground v.1.15,2013-12-23 12:20:00,
2013-12-23 04:25:00,44.1,40.8,30.36,NNE,14,3.0,4.0,88,0.00,,,0.00,0,Wunderground v.1.15,2013-12-23 12:25:00,
2013-12-23 04:34:00,44.3,41.0,30.37,NNE,14,4.0,4.0,88,0.00,,,0.00,0,Wunderground v.1.15,2013-12-23 12:34:00,
2013-12-23 04:40:00,44.4,41.4,30.37,NNW,347,4.0,5.0,89,0.00,,,0.00,0,Wunderground v.1.15,2013-12-23 12:40:00,
2013-12-23 04:45:00,44.6,41.6,30.37,NNW,344,6.0,8.0,89,0.00,,,0.00,0,Wunderground v.1.15,2013-12-23 12:45:00,
2013-12-23 04:55:00,44.9,41.9,30.36,North,351,6.0,8.0,89,0.00,,,0.00,0,Wunderground v.1.15,2013-12-23 12:55:00,
2013-12-23 05:00:00,44.9,42.1,30.36,North,349,6.0,6.0,90,0.00,,,0.00,0,Wunderground v.1.15,2013-12-23 13:00:00,
2013-12-23 05:09:00,44.9,42.1,30.37,North,357,5.0,5.0,90,0.00,,,0.00,0,Wunderground v.1.15,2013-12-23 13:09:00,
2013-12-23 05:15:00,44.7,41.9,30.37,North,7,5.0,5.0,90,0.00,,,0.00,0,Wunderground v.1.15,2013-12-23 13:15:00,
2013-12-23 05:24:00,44.5,41.7,30.37,North,359,6.0,6.0,90,0.00,,,0.00,0,Wunderground v.1.15,2013-12-23 13:24:00,
2013-12-23 05:30:00,44.5,41.7,30.37,North,356,6.0,6.0,90,0.00,,,0.00,0,Wunderground v.1.15,2013-12-23 13:30:00,
2013-12-23 05:39:00,44.5,42.0,30.37,North,360,7.0,8.0,91,0.00,,,0.00,0,Wunderground v.1.15,2013-12-23 13:39:00,
2013-12-23 05:44:00,44.5,42.0,30.37,North,5,7.0,10.0,91,0.00,,,0.00,0,Wunderground v.1.15,2013-12-23 13:44:00,
2013-12-23 05:50:00,44.5,42.0,30.38,North,1,6.0,6.0,91,0.00,,,0.00,0,Wunderground v.1.15,2013-12-23 13:50:00,
2013-12-23 05:59:00,44.7,42.2,30.38,North,2,7.0,7.0,91,0.00,,,0.00,0,Wunderground v.1.15,2013-12-23 13:59:00,
2013-12-23 06:05:00,44.8,42.3,30.38,North,10,7.0,8.0,91,0.00,,,0.00,0,Wunderground v.1.15,2013-12-23 14:05:00,
2013-12-23 06:14:00,45.0,42.5,30.38,North,1,7.0,8.0,91,0.00,,,0.00,0,Wunderground v.1.15,2013-12-23 14:14:00,
2013-12-23 06:20:00,44.9,42.4,30.38,North,360,8.0,9.0,91,0.00,,,0.00,0,Wunderground v.1.15,2013-12-23 14:20:00,
2013-12-23 06:25:00,44.8,42.3,30.38,North,355,8.0,9.0,91,0.00,,,0.00,0,Wunderground v.1.15,2013-12-23 14:25:00,
2013-12-23 06:35:00,44.7,42.2,30.38,NNE,16,9.0,11.0,91,0.00,,,0.00,0,Wunderground v.1.15,2013-12-23 14:35:00,
2013-12-23 06:40:00,44.7,42.2,30.38,North,7,9.0,9.0,91,0.00,,,0.00,0,Wunderground v.1.15,2013-12-23 14:40:00,
2013-12-23 06:50:00,44.9,42.4,30.39,North,357,9.0,9.0,91,0.00,,,0.00,0,Wunderground v.1.15,2013-12-23 14:50:00,
2013-12-23 06:59:00,44.8,42.3,30.39,North,358,8.0,8.0,91,0.00,,,0.00,0,Wunderground v.1.15,2013-12-23 14:59:00,
2013-12-23 07:05:00,44.7,42.2,30.39,NNW,343,7.0,8.0,91,0.00,,,0.00,0,Wunderground v.1.15,2013-12-23 15:05:00,
2013-12-23 07:10:00,44.7,42.2,30.40,North,357,6.0,8.0,91,0.00,,,0.00,0,Wunderground v.1.15,2013-12-23 15:10:00,
2013-12-23 07:19:00,44.5,41.7,30.40,NNE,18,7.0,7.0,90,0.00,,,0.00,0,Wunderground v.1.15,2013-12-23 15:19:00,
2013-12-23 07:25:00,44.4,41.7,30.40,North,9,6.0,7.0,90,0.00,,,0.00,5,Wunderground v.1.15,2013-12-23 15:25:00,
2013-12-23 07:35:00,44.6,41.6,30.41,NNE,16,1.0,4.0,89,0.00,,,0.00,11,Wunderground v.1.15,2013-12-23 15:35:00,
2013-12-23 07:40:00,44.7,41.7,30.41,NNE,16,0.0,0.0,89,0.00,,,0.00,16,Wunderground v.1.15,2013-12-23 15:40:00,
2013-12-23 07:45:00,45.0,42.0,30.41,North,11,0.0,0.0,89,0.00,,,0.00,19,Wunderground v.1.15,2013-12-23 15:45:00,
2013-12-23 07:55:00,45.9,42.5,30.41,NNE,20,1.0,1.0,88,0.00,,,0.00,32,Wunderground v.1.15,2013-12-23 15:55:00,
2013-12-23 08:00:00,46.4,42.7,30.41,NNE,16,1.0,1.0,87,0.00,,,0.00,25,Wunderground v.1.15,2013-12-23 16:00:00,
2013-12-23 08:10:00,47.4,43.4,30.42,NNE,15,1.0,1.0,86,0.00,,,0.00,65,Wunderground v.1.15,2013-12-23 16:10:00,
2013-12-23 08:15:00,48.2,43.9,30.42,NNE,12,1.0,1.0,85,0.00,,,0.00,76,Wunderground v.1.15,2013-12-23 16:15:00,
2013-12-23 08:20:00,49.2,43.9,30.42,NNE,14,2.0,3.0,82,0.00,,,0.00,88,Wunderground v.1.15,2013-12-23 16:20:00,
2013-12-23 08:30:00,50.8,44.9,30.42,NNE,14,1.0,1.0,80,0.00,,,0.00,120,Wunderground v.1.15,2013-12-23 16:30:00,
2013-12-23 08:35:00,52.0,45.4,30.42,NNE,15,1.0,1.0,78,0.00,,,0.00,134,Wunderground v.1.15,2013-12-23 16:35:00,
2013-12-23 08:44:00,54.8,47.0,30.43,NNE,13,0.0,0.0,75,0.00,,,0.00,163,Wunderground v.1.15,2013-12-23 16:44:00,
2013-12-23 08:50:00,56.1,47.6,30.43,NNE,16,0.0,0.0,73,0.00,,,0.00,176,Wunderground v.1.15,2013-12-23 16:50:00,
2013-12-23 08:55:00,57.2,47.9,30.43,NNE,18,0.0,0.0,71,0.00,,,0.00,188,Wunderground v.1.15,2013-12-23 16:55:00,
2013-12-23 09:04:00,58.3,45.8,30.43,NNE,17,1.0,1.0,63,0.00,,,0.00,211,Wunderground v.1.15,2013-12-23 17:04:00,
2013-12-23 09:10:00,57.5,44.6,30.42,NNE,17,1.0,2.0,62,0.00,,,0.00,225,Wunderground v.1.15,2013-12-23 17:10:00,
2013-12-23 09:19:00,58.0,44.6,30.42,NNE,14,2.0,2.0,61,0.00,,,0.00,250,Wunderground v.1.15,2013-12-23 17:19:00,
2013-12-23 09:25:00,58.5,44.7,30.42,NNE,14,1.0,2.0,60,0.00,,,0.00,260,Wunderground v.1.15,2013-12-23 17:25:00,
2013-12-23 09:34:00,59.8,45.0,30.42,NNE,16,1.0,1.0,58,0.00,,,0.00,283,Wunderground v.1.15,2013-12-23 17:34:00,
2013-12-23 09:40:00,57.5,41.4,30.42,NNE,14,1.0,1.0,55,0.00,,,0.00,292,Wunderground v.1.15,2013-12-23 17:40:00,
2013-12-23 09:45:00,53.9,41.6,30.42,NNE,15,2.0,2.0,63,0.00,,,0.00,302,Wunderground v.1.15,2013-12-23 17:45:00,
2013-12-23 09:54:00,52.3,42.0,30.42,NNE,16,1.0,2.0,68,0.00,,,0.00,323,Wunderground v.1.15,2013-12-23 17:54:00,
2013-12-23 10:00:00,51.9,42.4,30.42,NNE,13,1.0,3.0,70,0.00,,,0.00,334,Wunderground v.1.15,2013-12-23 18:00:00,
2013-12-23 10:09:00,52.8,44.0,30.42,NNE,16,1.0,1.0,72,0.00,,,0.00,353,Wunderground v.1.15,2013-12-23 18:09:00,
2013-12-23 10:14:00,53.8,44.6,30.42,NNE,17,1.0,1.0,71,0.00,,,0.00,362,Wunderground v.1.15,2013-12-23 18:14:00,
2013-12-23 10:20:00,54.8,44.0,30.42,NNE,14,1.0,1.0,67,0.00,,,0.00,371,Wunderground v.1.15,2013-12-23 18:20:00,
2013-12-23 10:30:00,55.5,44.7,30.42,NNE,12,0.0,0.0,67,0.00,,,0.00,387,Wunderground v.1.15,2013-12-23 18:30:00,
2013-12-23 10:35:00,56.3,45.1,30.42,NNE,19,0.0,2.0,66,0.00,,,0.00,394,Wunderground v.1.15,2013-12-23 18:35:00,
2013-12-23 10:45:00,55.3,44.5,30.42,NNE,20,2.0,3.0,67,0.00,,,0.00,408,Wunderground v.1.15,2013-12-23 18:45:00,
2013-12-23 10:50:00,54.8,44.4,30.42,North,11,2.0,2.0,68,0.00,,,0.00,408,Wunderground v.1.15,2013-12-23 18:50:00,
2013-12-23 10:55:00,55.3,43.7,30.42,NNE,17,2.0,3.0,65,0.00,,,0.00,418,Wunderground v.1.15,2013-12-23 18:55:00,
2013-12-23 11:05:00,56.1,43.7,30.42,NW,324,4.0,7.0,63,0.00,,,0.00,427,Wunderground v.1.15,2013-12-23 19:05:00,
2013-12-23 11:10:00,57.0,43.7,30.42,NW,325,4.0,7.0,61,0.00,,,0.00,432,Wunderground v.1.15,2013-12-23 19:10:00,
2013-12-23 11:19:00,58.0,43.7,30.41,North,349,6.0,6.0,59,0.00,,,0.00,446,Wunderground v.1.15,2013-12-23 19:19:00,
2013-12-23 11:25:00,59.1,44.3,30.41,NNW,347,5.0,6.0,58,0.00,,,0.00,452,Wunderground v.1.15,2013-12-23 19:25:00,
2013-12-23 11:30:00,60.0,44.3,30.41,NNW,343,5.0,5.0,56,0.00,,,0.00,457,Wunderground v.1.15,2013-12-23 19:30:00,
2013-12-23 11:39:00,60.6,43.9,30.41,NNW,341,6.0,6.0,54,0.00,,,0.00,457,Wunderground v.1.15,2013-12-23 19:39:00,
2013-12-23 11:45:00,60.6,43.9,30.40,NNW,334,7.0,11.0,54,0.00,,,0.00,464,Wunderground v.1.15,2013-12-23 19:45:00,
2013-12-23 11:55:00,60.6,44.3,30.40,SSW,213,8.0,9.0,55,0.00,,,0.00,471,Wunderground v.1.15,2013-12-23 19:55:00,
2013-12-23 12:00:00,60.7,44.4,30.40,NNW,339,8.0,8.0,55,0.00,,,0.00,471,Wunderground v.1.15,2013-12-23 20:00:00,
2013-12-23 12:05:00,61.4,45.1,30.40,NNW,338,7.0,8.0,55,0.00,,,0.00,471,Wunderground v.1.15,2013-12-23 20:05:00,
2013-12-23 12:15:00,62.1,45.2,30.39,NE,42,3.0,6.0,54,0.00,,,0.00,471,Wunderground v.1.15,2013-12-23 20:15:00,
2013-12-23 12:20:00,63.3,43.8,30.39,East,94,3.0,6.0,49,0.00,,,0.00,471,Wunderground v.1.15,2013-12-23 20:20:00,
2013-12-23 12:30:00,65.0,43.7,30.38,East,93,5.0,5.0,46,0.00,,,0.00,475,Wunderground v.1.15,2013-12-23 20:30:00,
2013-12-23 12:39:00,64.7,44.0,30.38,East,97,3.0,3.0,47,0.00,,,0.00,469,Wunderground v.1.15,2013-12-23 20:39:00,
2013-12-23 12:44:00,64.6,43.9,30.38,East,98,4.0,4.0,47,0.00,,,0.00,468,Wunderground v.1.15,2013-12-23 20:44:00,
2013-12-23 12:50:00,64.6,42.8,30.37,ESE,104,4.0,4.0,45,0.00,,,0.00,466,Wunderground v.1.15,2013-12-23 20:50:00,
2013-12-23 12:59:00,62.9,44.0,30.37,ESE,116,2.0,2.0,50,0.00,,,0.00,459,Wunderground v.1.15,2013-12-23 20:59:00,
2013-12-23 13:05:00,63.5,42.9,30.37,East,99,2.0,3.0,47,0.00,,,0.00,459,Wunderground v.1.15,2013-12-23 21:05:00,
2013-12-23 13:15:00,66.4,42.6,30.37,ENE,71,5.0,5.0,42,0.00,,,0.00,448,Wunderground v.1.15,2013-12-23 21:15:00,
2013-12-23 13:20:00,67.5,43.0,30.37,East,81,6.0,6.0,41,0.00,,,0.00,443,Wunderground v.1.15,2013-12-23 21:20:00,
2013-12-23 13:25:00,68.2,42.9,30.36,NE,39,5.0,6.0,40,0.00,,,0.00,438,Wunderground v.1.15,2013-12-23 21:25:00,
2013-12-23 13:34:00,69.1,43.1,30.36,ENE,64,4.0,4.0,39,0.00,,,0.00,429,Wunderground v.1.15,2013-12-23 21:34:00,
2013-12-23 13:40:00,69.4,42.7,30.36,NE,46,4.0,7.0,38,0.00,,,0.00,422,Wunderground v.1.15,2013-12-23 21:40:00,
2013-12-23 13:49:00,69.5,42.8,30.35,NNE,31,6.0,9.0,38,0.00,,,0.00,411,Wunderground v.1.15,2013-12-23 21:49:00,
2013-12-23 13:55:00,69.5,42.8,30.35,NE,36,5.0,9.0,38,0.00,,,0.00,403,Wunderground v.1.15,2013-12-23 21:55:00,
2013-12-23 14:04:00,69.8,43.0,30.35,NE,39,5.0,5.0,38,0.00,,,0.00,388,Wunderground v.1.15,2013-12-23 22:04:00,
2013-12-23 14:10:00,69.5,42.8,30.35,ENE,78,5.0,5.0,38,0.00,,,0.00,359,Wunderground v.1.15,2013-12-23 22:10:00,
2013-12-23 14:15:00,69.0,42.3,30.35,East,97,4.0,5.0,38,0.00,,,0.00,360,Wunderground v.1.15,2013-12-23 22:15:00,
2013-12-23 14:25:00,67.6,41.7,30.34,East,95,4.0,6.0,39,0.00,,,0.00,345,Wunderground v.1.15,2013-12-23 22:25:00,
2013-12-23 14:30:00,67.4,42.2,30.34,East,95,5.0,5.0,40,0.00,,,0.00,325,Wunderground v.1.15,2013-12-23 22:30:00,
2013-12-23 14:39:00,67.5,42.3,30.34,East,80,6.0,6.0,40,0.00,,,0.00,315,Wunderground v.1.15,2013-12-23 22:39:00,
2013-12-23 14:45:00,67.9,42.0,30.34,ENE,77,6.0,6.0,39,0.00,,,0.00,299,Wunderground v.1.15,2013-12-23 22:45:00,
2013-12-23 14:54:00,67.4,42.2,30.34,ENE,78,6.0,6.0,40,0.00,,,0.00,292,Wunderground v.1.15,2013-12-23 22:54:00,
2013-12-23 15:00:00,67.8,42.6,30.34,East,84,5.0,5.0,40,0.00,,,0.00,283,Wunderground v.1.15,2013-12-23 23:00:00,
2013-12-23 15:05:00,68.4,42.5,30.34,East,82,4.0,7.0,39,0.00,,,0.00,272,Wunderground v.1.15,2013-12-23 23:05:00,
2013-12-23 15:14:00,68.0,41.4,30.34,East,82,6.0,8.0,38,0.00,,,0.00,248,Wunderground v.1.15,2013-12-23 23:14:00,
2013-12-23 15:20:00,67.9,42.0,30.34,East,90,6.0,6.0,39,0.00,,,0.00,232,Wunderground v.1.15,2013-12-23 23:20:00,
2013-12-23 15:25:00,67.7,41.8,30.34,East,87,4.0,6.0,39,0.00,,,0.00,211,Wunderground v.1.15,2013-12-23 23:25:00,
2013-12-23 15:35:00,67.5,41.7,30.34,East,94,4.0,6.0,39,0.00,,,0.00,155,Wunderground v.1.15,2013-12-23 23:35:00,
2013-12-23 15:40:00,67.0,41.9,30.34,East,95,4.0,4.0,40,0.00,,,0.00,132,Wunderground v.1.15,2013-12-23 23:40:00,
2013-12-23 15:49:00,66.9,42.4,30.34,East,92,3.0,3.0,41,0.00,,,0.00,100,Wunderground v.1.15,2013-12-23 23:49:00,
2013-12-23 15:55:00,67.4,42.2,30.34,East,93,3.0,3.0,40,0.00,,,0.00,116,Wunderground v.1.15,2013-12-23 23:55:00,
2013-12-23 16:00:00,67.9,42.7,30.34,East,89,3.0,3.0,40,0.00,,,0.00,100,Wunderground v.1.15,2013-12-24 00:00:00,
2013-12-23 16:10:00,68.0,42.1,30.34,East,85,3.0,6.0,39,0.00,,,0.00,72,Wunderground v.1.15,2013-12-24 00:10:00,
2013-12-23 16:19:00,67.2,42.0,30.34,East,80,4.0,4.0,40,0.00,,,0.00,49,Wunderground v.1.15,2013-12-24 00:19:00,
2013-12-23 16:25:00,66.5,41.4,30.35,SSW,213,5.0,5.0,40,0.00,,,0.00,37,Wunderground v.1.15,2013-12-24 00:25:00,
2013-12-23 16:34:00,65.6,41.9,30.35,ENE,76,4.0,7.0,42,0.00,,,0.00,18,Wunderground v.1.15,2013-12-24 00:34:00,
2013-12-23 16:39:00,65.1,41.4,30.35,ENE,74,3.0,3.0,42,0.00,,,0.00,14,Wunderground v.1.15,2013-12-24 00:39:00,
2013-12-23 16:45:00,64.5,41.5,30.35,ENE,74,3.0,3.0,43,0.00,,,0.00,11,Wunderground v.1.15,2013-12-24 00:45:00,
2013-12-23 16:54:00,63.3,41.0,30.35,ENE,73,3.0,3.0,44,0.00,,,0.00,0,Wunderground v.1.15,2013-12-24 00:54:00,
2013-12-23 17:00:00,62.6,40.9,30.35,ENE,72,3.0,3.0,45,0.00,,,0.00,0,Wunderground v.1.15,2013-12-24 01:00:00,
2013-12-23 17:09:00,61.5,40.5,30.35,ENE,66,3.0,3.0,46,0.00,,,0.00,0,Wunderground v.1.15,2013-12-24 01:09:00,
2013-12-23 17:14:00,61.0,40.6,30.35,ENE,63,4.0,5.0,47,0.00,,,0.00,0,Wunderground v.1.15,2013-12-24 01:14:00,
2013-12-23 17:20:00,60.7,40.3,30.35,ENE,64,4.0,4.0,47,0.00,,,0.00,0,Wunderground v.1.15,2013-12-24 01:20:00,
2013-12-23 17:30:00,60.0,40.8,30.35,ENE,63,3.0,3.0,49,0.00,,,0.00,0,Wunderground v.1.15,2013-12-24 01:30:00,
2013-12-23 17:35:00,59.7,40.5,30.36,ENE,62,2.0,3.0,49,0.00,,,0.00,0,Wunderground v.1.15,2013-12-24 01:35:00,
2013-12-23 17:44:00,59.2,40.6,30.36,ENE,62,2.0,3.0,50,0.00,,,0.00,0,Wunderground v.1.15,2013-12-24 01:44:00,
2013-12-23 17:50:00,58.9,40.8,30.36,ENE,62,1.0,1.0,51,0.00,,,0.00,0,Wunderground v.1.15,2013-12-24 01:50:00,
2013-12-23 17:59:00,58.4,41.3,30.36,NE,47,4.0,4.0,53,0.00,,,0.00,0,Wunderground v.1.15,2013-12-24 01:59:00,
2013-12-23 18:05:00,58.2,41.1,30.36,NE,55,4.0,4.0,53,0.00,,,0.00,0,Wunderground v.1.15,2013-12-24 02:05:00,
2013-12-23 18:14:00,58.3,41.7,30.35,ENE,58,1.0,3.0,54,0.00,,,0.00,0,Wunderground v.1.15,2013-12-24 02:14:00,
2013-12-23 18:20:00,58.2,41.6,30.35,ENE,57,0.0,0.0,54,0.00,,,0.00,0,Wunderground v.1.15,2013-12-24 02:20:00,
2013-12-23 18:25:00,58.2,41.6,30.35,NE,55,0.0,0.0,54,0.00,,,0.00,0,Wunderground v.1.15,2013-12-24 02:25:00,
2013-12-23 18:34:00,58.0,41.9,30.36,NE,56,0.0,2.0,55,0.00,,,0.00,0,Wunderground v.1.15,2013-12-24 02:34:00,
2013-12-23 18:40:00,57.7,41.6,30.36,NE,56,1.0,2.0,55,0.00,,,0.00,0,Wunderground v.1.15,2013-12-24 02:40:00,
2013-12-23 18:45:00,57.5,41.9,30.36,ENE,57,2.0,3.0,56,0.00,,,0.00,0,Wunderground v.1.15,2013-12-24 02:45:00,
2013-12-23 18:55:00,56.6,41.1,30.36,NE,56,2.0,2.0,56,0.00,,,0.00,0,Wunderground v.1.15,2013-12-24 02:55:00,
2013-12-23 19:00:00,56.1,41.1,30.36,NE,56,3.0,5.0,57,0.00,,,0.00,0,Wunderground v.1.15,2013-12-24 03:00:00,
2013-12-23 19:05:00,55.6,41.5,30.36,NE,52,4.0,5.0,59,0.00,,,0.00,0,Wunderground v.1.15,2013-12-24 03:05:00,
2013-12-23 19:15:00,54.9,41.7,30.36,NE,47,2.0,5.0,61,0.00,,,0.00,0,Wunderground v.1.15,2013-12-24 03:15:00,
2013-12-23 19:20:00,54.5,42.2,30.36,NE,46,3.0,5.0,63,0.00,,,0.00,0,Wunderground v.1.15,2013-12-24 03:20:00,
2013-12-23 19:29:00,53.9,42.0,30.36,NE,45,2.0,2.0,64,0.00,,,0.00,0,Wunderground v.1.15,2013-12-24 03:29:00,
2013-12-23 19:35:00,53.7,42.6,30.36,NE,45,1.0,2.0,66,0.00,,,0.00,0,Wunderground v.1.15,2013-12-24 03:35:00,
2013-12-23 19:44:00,53.6,42.5,30.36,NE,45,3.0,4.0,66,0.00,,,0.00,0,Wunderground v.1.15,2013-12-24 03:44:00,
2013-12-23 19:49:00,53.5,42.4,30.36,NE,37,4.0,4.0,66,0.00,,,0.00,0,Wunderground v.1.15,2013-12-24 03:49:00,
2013-12-23 19:55:00,53.4,42.7,30.36,NNE,14,5.0,6.0,67,0.00,,,0.00,0,Wunderground v.1.15,2013-12-24 03:55:00,
2013-12-23 20:05:00,53.2,42.9,30.36,North,1,4.0,5.0,68,0.00,,,0.00,0,Wunderground v.1.15,2013-12-24 04:05:00,
2013-12-23 20:14:00,52.7,43.2,30.36,North,1,5.0,5.0,70,0.00,,,0.00,0,Wunderground v.1.15,2013-12-24 04:14:00,
2013-12-23 20:19:00,52.5,43.4,30.36,North,360,5.0,5.0,71,0.00,,,0.00,0,Wunderground v.1.15,2013-12-24 04:19:00,
2013-12-23 20:25:00,52.4,43.3,30.36,North,359,5.0,5.0,71,0.00,,,0.00,0,Wunderground v.1.15,2013-12-24 04:25:00,
2013-12-23 20:34:00,52.1,43.3,30.37,North,1,4.0,4.0,72,0.00,,,0.00,0,Wunderground v.1.15,2013-12-24 04:34:00,
2013-12-23 20:40:00,51.9,43.2,30.37,North,360,4.0,5.0,72,0.00,,,0.00,0,Wunderground v.1.15,2013-12-24 04:40:00,
2013-12-23 20:45:00,51.8,43.1,30.37,North,360,4.0,5.0,72,0.00,,,0.00,0,Wunderground v.1.15,2013-12-24 04:45:00,
2013-12-23 20:55:00,51.8,43.4,30.37,North,357,5.0,6.0,73,0.00,,,0.00,0,Wunderground v.1.15,2013-12-24 04:55:00,
2013-12-23 21:00:00,51.8,43.4,30.37,North,353,5.0,5.0,73,0.00,,,0.00,0,Wunderground v.1.15,2013-12-24 05:00:00,
2013-12-23 21:04:00,51.7,43.3,30.37,North,354,4.0,5.0,73,0.00,,,0.00,0,Wunderground v.1.15,2013-12-24 05:04:00,
2013-12-23 21:09:00,51.5,43.1,30.36,North,354,4.0,4.0,73,0.00,,,0.00,0,Wunderground v.1.15,2013-12-24 05:09:00,
2013-12-23 21:15:00,51.4,43.0,30.36,North,355,3.0,4.0,73,0.00,,,0.00,0,Wunderground v.1.15,2013-12-24 05:15:00,
2013-12-23 21:19:00,51.2,42.8,30.36,North,354,3.0,3.0,73,0.00,,,0.00,0,Wunderground v.1.15,2013-12-24 05:19:00,
2013-12-23 21:24:00,51.1,43.1,30.37,North,353,4.0,5.0,74,0.00,,,0.00,0,Wunderground v.1.15,2013-12-24 05:24:00,
2013-12-23 21:30:00,51.1,43.1,30.37,North,351,5.0,5.0,74,0.00,,,0.00,0,Wunderground v.1.15,2013-12-24 05:30:00,
2013-12-23 21:35:00,51.1,43.4,30.37,North,352,5.0,5.0,75,0.00,,,0.00,0,Wunderground v.1.15,2013-12-24 05:35:00,
2013-12-23 21:44:00,51.0,43.4,30.37,North,351,5.0,5.0,75,0.00,,,0.00,0,Wunderground v.1.15,2013-12-24 05:44:00,
2013-12-23 21:50:00,50.8,43.5,30.37,North,354,5.0,5.0,76,0.00,,,0.00,0,Wunderground v.1.15,2013-12-24 05:50:00,
2013-12-23 22:00:00,50.7,43.4,30.37,North,5,6.0,6.0,76,0.00,,,0.00,0,Wunderground v.1.15,2013-12-24 06:00:00,
2013-12-23 22:05:00,50.6,43.3,30.37,North,1,6.0,7.0,76,0.00,,,0.00,0,Wunderground v.1.15,2013-12-24 06:05:00,
2013-12-23 22:14:00,50.4,43.5,30.38,North,353,6.0,6.0,77,0.00,,,0.00,0,Wunderground v.1.15,2013-12-24 06:14:00,
2013-12-23 22:20:00,50.2,43.6,30.38,North,350,5.0,5.0,78,0.00,,,0.00,0,Wunderground v.1.15,2013-12-24 06:20:00,
2013-12-23 22:25:00,50.1,43.5,30.38,North,353,5.0,5.0,78,0.00,,,0.00,0,Wunderground v.1.15,2013-12-24 06:25:00,
2013-12-23 22:35:00,49.9,43.6,30.38,North,3,7.0,7.0,79,0.00,,,0.00,0,Wunderground v.1.15,2013-12-24 06:35:00,
2013-12-23 22:40:00,49.7,43.5,30.38,North,2,7.0,7.0,79,0.00,,,0.00,0,Wunderground v.1.15,2013-12-24 06:40:00,
2013-12-23 22:49:00,49.6,43.4,30.38,North,7,5.0,5.0,79,0.00,,,0.00,0,Wunderground v.1.15,2013-12-24 06:49:00,
2013-12-23 22:55:00,49.5,43.3,30.38,NNE,12,4.0,5.0,79,0.00,,,0.00,0,Wunderground v.1.15,2013-12-24 06:55:00,
2013-12-23 23:00:00,49.4,43.2,30.38,North,4,4.0,5.0,79,0.00,,,0.00,0,Wunderground v.1.15,2013-12-24 07:00:00,
2013-12-23 23:10:00,49.3,43.1,30.38,North,353,6.0,6.0,79,0.00,,,0.00,0,Wunderground v.1.15,2013-12-24 07:10:00,
2013-12-23 23:15:00,49.2,43.0,30.38,North,358,5.0,7.0,79,0.00,,,0.00,0,Wunderground v.1.15,2013-12-24 07:15:00,
2013-12-23 23:24:00,49.0,42.8,30.38,North,1,6.0,6.0,79,0.00,,,0.00,0,Wunderground v.1.15,2013-12-24 07:24:00,
2013-12-23 23:30:00,49.1,43.2,30.38,North,359,6.0,8.0,80,0.00,,,0.00,0,Wunderground v.1.15,2013-12-24 07:30:00,
2013-12-23 23:39:00,48.9,43.0,30.38,North,357,7.0,7.0,80,0.00,,,0.00,0,Wunderground v.1.15,2013-12-24 07:39:00,
2013-12-23 23:45:00,48.8,42.9,30.38,North,1,6.0,7.0,80,0.00,,,0.00,0,Wunderground v.1.15,2013-12-24 07:45:00,
2013-12-23 23:54:00,48.6,43.0,30.38,North,357,6.0,8.0,81,0.00,,,0.00,0,Wunderground v.1.15,2013-12-24 07:54:00,